createdAt,value
2018-09-03T00:00:53.760Z,39.17
2018-09-03T00:03:22.083Z,79.97
2018-09-03T00:05:50.423Z,48.73
2018-09-03T00:08:18.771Z,84.20
2018-09-03T00:10:47.092Z,83.33
2018-09-03T00:13:15.418Z,76.07
2018-09-03T00:15:43.772Z,68.27
2018-09-03T00:18:12.160Z,85.17
2018-09-03T00:20:40.476Z,82.63
2018-09-03T00:23:08.796Z,76.03
2018-09-03T00:25:37.106Z,75.80
2018-09-03T00:28:05.510Z,79.27
2018-09-03T00:30:33.816Z,43.40
2018-09-03T00:33:07.726Z,78.97
2018-09-03T00:35:41.532Z,81.80
2018-09-03T00:38:15.224Z,93.40
2018-09-03T00:40:48.920Z,101.33
2018-09-03T00:43:22.628Z,95.03
2018-09-03T00:45:56.268Z,84.03
2018-09-03T00:48:24.596Z,87.67
2018-09-03T00:50:52.896Z,89.27
2018-09-03T00:53:21.224Z,46.50
2018-09-03T00:55:49.569Z,39.83
2018-09-03T00:58:17.936Z,44.13
2018-09-03T01:00:46.340Z,34.20
2018-09-03T01:03:14.672Z,69.77
2018-09-03T01:05:42.999Z,69.20
2018-09-03T01:08:11.323Z,43.90
2018-09-03T01:10:39.685Z,75.67
2018-09-03T01:13:07.972Z,80.73
2018-09-03T01:15:36.280Z,88.47
2018-09-03T01:18:04.636Z,101.60
2018-09-03T01:20:33.030Z,106.23
2018-09-03T01:23:01.361Z,112.43
2018-09-03T01:25:29.672Z,101.43
2018-09-03T01:27:57.996Z,105.87
2018-09-03T01:30:26.299Z,102.80
2018-09-03T01:32:54.622Z,49.00
2018-09-03T01:35:22.939Z,45.80
2018-09-03T01:37:51.272Z,97.50
2018-09-03T01:40:19.576Z,85.13
2018-09-03T01:42:47.898Z,119.63
2018-09-03T01:45:16.219Z,98.47
2018-09-03T01:47:44.555Z,108.77
2018-09-03T01:50:12.864Z,118.07
2018-09-03T01:52:41.189Z,118.13
2018-09-03T01:55:09.560Z,63.83
2018-09-03T01:57:37.913Z,59.07
2018-09-03T02:00:06.263Z,39.57
2018-09-03T02:02:34.591Z,35.73
2018-09-03T02:05:02.913Z,99.43
2018-09-03T02:07:31.256Z,113.80
2018-09-03T02:09:59.572Z,114.33
2018-09-03T02:12:27.896Z,132.87
2018-09-03T02:14:56.199Z,125.47
2018-09-03T02:17:24.540Z,140.43
2018-09-03T02:19:52.847Z,181.07
2018-09-03T02:22:21.175Z,182.57
2018-09-03T02:24:49.480Z,164.90
2018-09-03T02:27:17.821Z,201.73
2018-09-03T02:29:46.137Z,241.07
2018-09-03T02:32:14.468Z,191.53
2018-09-03T02:34:42.777Z,167.57
2018-09-03T02:37:11.112Z,161.47
2018-09-03T02:39:39.420Z,150.97
2018-09-03T02:42:07.772Z,118.43
2018-09-03T02:44:36.076Z,182.90
2018-09-03T02:47:04.443Z,83.63
2018-09-03T02:49:32.757Z,73.13
2018-09-03T02:52:01.108Z,72.20
2018-09-03T02:54:29.433Z,92.80
2018-09-03T02:56:57.750Z,64.83
2018-09-03T02:59:26.089Z,121.97
2018-09-03T03:01:54.422Z,141.87
2018-09-03T03:04:22.763Z,136.63
2018-09-03T03:06:51.152Z,117.23
2018-09-03T03:09:19.476Z,144.70
2018-09-03T03:11:47.796Z,121.13
2018-09-03T03:14:16.235Z,68.20
2018-09-03T03:16:44.544Z,146.80
2018-09-03T03:19:12.888Z,147.27
2018-09-03T03:21:41.193Z,161.50
2018-09-03T03:24:09.521Z,152.70
2018-09-03T03:26:37.837Z,143.13
2018-09-03T03:29:06.178Z,115.43
2018-09-03T03:31:34.492Z,123.93
2018-09-03T03:34:02.820Z,151.70
2018-09-03T03:36:31.125Z,137.37
2018-09-03T03:38:59.448Z,138.20
2018-09-03T03:41:27.776Z,67.33
2018-09-03T03:43:56.095Z,149.10
2018-09-03T03:46:24.431Z,65.23
2018-09-03T03:48:52.748Z,66.10
2018-09-03T03:51:21.067Z,131.90
2018-09-03T03:53:49.388Z,65.93
2018-09-03T03:56:17.693Z,66.23
2018-09-03T03:58:46.040Z,64.03
2018-09-03T04:01:14.652Z,123.10
2018-09-03T04:03:42.990Z,124.20
2018-09-03T04:06:11.420Z,94.20
2018-09-03T04:08:39.847Z,71.27
2018-09-03T04:11:08.169Z,120.57
2018-09-03T04:13:36.488Z,148.50
2018-09-03T04:16:04.823Z,132.07
2018-09-03T04:18:33.141Z,90.10
2018-09-03T04:21:01.460Z,81.00
2018-09-03T04:23:29.970Z,113.60
2018-09-03T04:25:58.144Z,121.03
2018-09-03T04:28:26.472Z,69.50
2018-09-03T04:30:54.811Z,83.83
2018-09-03T04:33:23.139Z,77.57
2018-09-03T04:35:51.448Z,86.63
2018-09-03T04:38:19.772Z,119.57
2018-09-03T04:40:48.092Z,141.13
2018-09-03T04:43:16.423Z,141.97
2018-09-03T04:45:44.741Z,83.70
2018-09-03T04:48:13.148Z,80.97
2018-09-03T04:50:41.451Z,77.83
2018-09-03T04:53:09.772Z,79.20
2018-09-03T04:55:38.095Z,97.37
2018-09-03T04:58:06.481Z,160.67
2018-09-03T05:00:34.796Z,64.70
2018-09-03T05:03:03.129Z,147.37
2018-09-03T05:05:31.515Z,78.30
2018-09-03T05:07:59.782Z,73.17
2018-09-03T05:10:28.110Z,68.10
2018-09-03T05:12:56.425Z,75.10
2018-09-03T05:15:24.767Z,63.20
2018-09-03T05:17:53.085Z,68.40
2018-09-03T05:20:21.409Z,71.87
2018-09-03T05:22:49.716Z,65.80
2018-09-03T05:25:18.041Z,132.37
2018-09-03T05:27:46.356Z,89.87
2018-09-03T05:30:14.680Z,77.03
2018-09-03T05:32:42.996Z,76.90
2018-09-03T05:35:11.328Z,91.93
2018-09-03T05:37:39.636Z,79.23
2018-09-03T05:40:08.036Z,95.80
2018-09-03T05:42:36.353Z,164.77
2018-09-03T05:45:05.299Z,136.67
2018-09-03T05:47:33.619Z,77.40
2018-09-03T05:50:02.024Z,135.27
2018-09-03T05:52:30.319Z,85.63
2018-09-03T05:54:58.656Z,290.70
2018-09-03T05:57:27.015Z,106.30
2018-09-03T05:59:55.328Z,80.97
2018-09-03T06:02:23.705Z,136.27
2018-09-03T06:04:52.088Z,79.17
2018-09-03T06:07:20.388Z,96.43
2018-09-03T06:09:48.720Z,100.80
2018-09-03T06:12:17.033Z,115.27
2018-09-03T06:14:45.367Z,131.63
2018-09-03T06:17:13.688Z,163.70
2018-09-03T06:19:42.057Z,110.10
2018-09-03T06:22:10.369Z,84.93
2018-09-03T06:24:38.692Z,86.80
2018-09-03T06:27:07.004Z,144.43
2018-09-03T06:29:35.323Z,92.53
2018-09-03T06:32:03.644Z,93.87
2018-09-03T06:34:31.972Z,119.57
2018-09-03T06:37:00.609Z,120.33
2018-09-03T06:39:28.938Z,127.93
2018-09-03T06:41:57.465Z,99.33
2018-09-03T06:44:25.811Z,90.17
2018-09-03T06:46:54.144Z,84.93
2018-09-03T06:49:22.476Z,132.63
2018-09-03T06:51:50.784Z,124.80
2018-09-03T06:54:19.160Z,123.73
2018-09-03T06:56:47.458Z,94.30
2018-09-03T06:59:15.780Z,78.77
2018-09-03T07:01:44.088Z,115.50
2018-09-03T07:04:12.447Z,108.43
2018-09-03T07:06:40.832Z,129.80
2018-09-03T07:09:10.094Z,121.00
2018-09-03T07:11:38.492Z,129.80
2018-09-03T07:14:06.856Z,124.37
2018-09-03T07:16:35.159Z,81.03
2018-09-03T07:19:03.500Z,108.13
2018-09-03T07:21:31.814Z,84.90
2018-09-03T07:24:00.124Z,77.07
2018-09-03T07:26:28.461Z,73.80
2018-09-03T07:28:56.850Z,98.60
2018-09-03T07:31:25.144Z,88.23
2018-09-03T07:33:53.457Z,69.47
2018-09-03T07:36:21.800Z,74.93
2018-09-03T07:38:50.113Z,94.50
2018-09-03T07:41:18.448Z,82.57
2018-09-03T07:43:46.757Z,89.23
2018-09-03T07:46:15.085Z,91.77
2018-09-03T07:48:43.388Z,85.73
2018-09-03T07:51:11.835Z,86.10
2018-09-03T07:53:40.137Z,67.07
2018-09-03T07:56:08.462Z,61.77
2018-09-03T07:58:36.772Z,97.70
2018-09-03T08:01:05.342Z,103.27
2018-09-03T08:03:33.620Z,60.77
2018-09-03T08:06:01.956Z,67.43
2018-09-03T08:08:30.308Z,63.73
2018-09-03T08:10:58.635Z,78.30
2018-09-03T08:13:32.476Z,64.93
2018-09-03T08:16:00.801Z,62.90
2018-09-03T08:18:29.112Z,58.70
2018-09-03T08:20:57.434Z,59.07
2018-09-03T08:23:25.764Z,101.13
2018-09-03T08:25:54.089Z,57.30
2018-09-03T08:28:22.405Z,55.83
2018-09-03T08:30:50.716Z,57.80
2018-09-03T08:33:19.053Z,60.20
2018-09-03T08:35:47.368Z,73.13
2018-09-03T08:38:15.665Z,81.43
2018-09-03T08:40:43.983Z,63.27
2018-09-03T08:43:12.293Z,54.90
2018-09-03T08:45:40.628Z,51.70
2018-09-03T08:48:08.947Z,59.93
2018-09-03T08:50:37.270Z,65.90
2018-09-03T08:53:05.884Z,87.63
2018-09-03T08:55:34.308Z,77.60
2018-09-03T08:58:02.616Z,52.60
2018-09-03T09:00:30.935Z,67.33
2018-09-03T09:02:59.243Z,60.87
2018-09-03T09:05:27.568Z,57.73
2018-09-03T09:07:55.908Z,56.50
2018-09-03T09:10:24.244Z,76.77
2018-09-03T09:12:52.540Z,53.03
2018-09-03T09:15:20.857Z,57.90
2018-09-03T09:17:49.164Z,75.17
2018-09-03T09:20:17.488Z,58.50
2018-09-03T09:22:45.834Z,52.43
2018-09-03T09:25:14.161Z,78.30
2018-09-03T09:27:42.465Z,86.97
2018-09-03T09:30:10.793Z,59.27
2018-09-03T09:32:39.100Z,77.50
2018-09-03T09:35:07.457Z,73.27
2018-09-03T09:37:35.764Z,61.63
2018-09-03T09:40:04.075Z,57.03
2018-09-03T09:42:32.408Z,71.90
2018-09-03T09:45:00.704Z,61.83
2018-09-03T09:47:29.033Z,62.17
2018-09-03T09:49:57.352Z,45.23
2018-09-03T09:52:25.688Z,46.90
2018-09-03T09:54:54.005Z,43.93
2018-09-03T09:57:22.359Z,42.17
2018-09-03T09:59:50.690Z,43.53
2018-09-03T10:02:19.012Z,46.03
2018-09-03T10:04:47.316Z,50.87
2018-09-03T10:07:15.672Z,52.33
2018-09-03T10:09:43.973Z,41.90
2018-09-03T10:12:12.296Z,46.80
2018-09-03T10:14:40.600Z,42.30
2018-09-03T10:17:08.920Z,52.43
2018-09-03T10:19:37.226Z,48.50
2018-09-03T10:22:05.624Z,35.00
2018-09-03T10:24:33.924Z,38.20
2018-09-03T10:27:02.284Z,38.63
2018-09-03T10:29:30.589Z,32.90
2018-09-03T10:31:58.986Z,46.40
2018-09-03T10:34:27.252Z,34.90
2018-09-03T10:36:55.573Z,33.00
2018-09-03T10:39:23.877Z,31.97
2018-09-03T10:41:52.221Z,38.93
2018-09-03T10:44:20.548Z,40.53
2018-09-03T10:46:49.883Z,33.27
2018-09-03T10:49:18.208Z,32.53
2018-09-03T10:51:46.520Z,43.40
2018-09-03T10:54:14.833Z,32.93
2018-09-03T10:56:43.148Z,31.20
2018-09-03T10:59:11.445Z,32.83
2018-09-03T11:01:39.764Z,43.17
2018-09-03T11:04:08.060Z,44.93
2018-09-03T11:06:36.399Z,35.67
2018-09-03T11:09:07.004Z,38.63
2018-09-03T11:11:35.324Z,37.53
2018-09-03T11:14:03.626Z,44.93
2018-09-03T11:16:32.084Z,33.50
2018-09-03T11:19:00.384Z,44.30
2018-09-03T11:21:28.772Z,38.97
2018-09-03T11:23:57.107Z,43.30
2018-09-03T11:26:25.412Z,46.43
2018-09-03T11:28:53.757Z,34.13
2018-09-03T11:31:22.052Z,34.40
2018-09-03T11:33:50.356Z,28.90
2018-09-03T11:36:18.680Z,31.10
2018-09-03T11:38:46.980Z,31.03
2018-09-03T11:41:15.312Z,32.10
2018-09-03T11:43:43.608Z,39.43
2018-09-03T11:46:11.924Z,46.40
2018-09-03T11:48:40.248Z,32.03
2018-09-03T11:51:08.656Z,30.07
2018-09-03T11:53:36.971Z,32.27
2018-09-03T11:56:05.284Z,33.40
2018-09-03T11:58:33.622Z,32.87
2018-09-03T12:01:01.967Z,41.73
2018-09-03T12:03:30.289Z,33.47
2018-09-03T12:05:58.609Z,45.67
2018-09-03T12:08:26.933Z,40.07
2018-09-03T12:10:55.231Z,35.43
2018-09-03T12:13:23.548Z,37.57
2018-09-03T12:16:24.607Z,32.70
2018-09-03T12:18:54.872Z,41.30
2018-09-03T12:21:23.212Z,35.97
2018-09-03T12:23:51.522Z,32.73
2018-09-03T12:26:19.836Z,35.43
2018-09-03T12:28:48.168Z,42.60
2018-09-03T12:31:16.536Z,43.87
2018-09-03T12:33:44.824Z,38.70
2018-09-03T12:36:13.125Z,34.40
2018-09-03T12:38:41.457Z,34.07
2018-09-03T12:41:09.769Z,38.10
2018-09-03T12:43:38.088Z,39.50
2018-09-03T12:46:07.580Z,35.97
2018-09-03T12:48:35.908Z,28.47
2018-09-03T12:51:04.917Z,38.00
2018-09-03T12:53:33.596Z,38.40
2018-09-03T12:56:02.579Z,29.50
2018-09-03T12:58:30.935Z,31.00
2018-09-03T13:00:59.242Z,34.17
2018-09-03T13:03:27.572Z,27.97
2018-09-03T13:05:55.911Z,29.43
2018-09-03T13:08:24.236Z,26.03
2018-09-03T13:10:52.536Z,25.73
2018-09-03T13:13:20.896Z,25.07
2018-09-03T13:15:49.204Z,32.53
2018-09-03T13:18:17.525Z,30.90
2018-09-03T13:20:45.823Z,22.97
2018-09-03T13:23:14.144Z,27.07
2018-09-03T13:25:42.452Z,26.20
2018-09-03T13:28:10.776Z,25.47
2018-09-03T13:30:39.079Z,21.00
2018-09-03T13:33:07.500Z,28.37
2018-09-03T13:35:35.812Z,27.37
2018-09-03T13:38:04.145Z,24.43
2018-09-03T13:40:32.529Z,23.40
2018-09-03T13:43:01.009Z,23.70
2018-09-03T13:45:29.307Z,21.33
2018-09-03T13:47:57.637Z,23.07
2018-09-03T13:50:25.940Z,21.47
2018-09-03T13:52:54.279Z,21.20
2018-09-03T13:55:22.644Z,19.40
2018-09-03T13:57:51.024Z,22.60
2018-09-03T14:00:19.335Z,21.87
2018-09-03T14:02:47.657Z,22.17
2018-09-03T14:05:15.960Z,20.60
2018-09-03T14:07:44.298Z,28.10
2018-09-03T14:10:12.605Z,24.97
2018-09-03T14:12:41.204Z,21.67
2018-09-03T14:15:09.613Z,25.40
2018-09-03T14:17:38.008Z,25.17
2018-09-03T14:20:06.400Z,23.77
2018-09-03T14:22:34.644Z,21.77
2018-09-03T14:25:02.947Z,21.40
2018-09-03T14:27:31.367Z,20.20
2018-09-03T14:29:59.660Z,24.20
2018-09-03T14:32:28.145Z,22.90
2018-09-03T14:34:56.450Z,20.17
2018-09-03T14:37:24.746Z,26.70
2018-09-03T14:39:53.292Z,24.50
2018-09-03T14:42:21.633Z,21.27
2018-09-03T14:44:51.253Z,25.47
2018-09-03T14:47:19.620Z,20.20
2018-09-03T14:49:47.944Z,26.33
2018-09-03T14:52:16.249Z,26.97
2018-09-03T14:54:44.571Z,26.47
2018-09-03T14:57:12.872Z,22.60
2018-09-03T14:59:41.489Z,23.17
2018-09-03T15:02:09.833Z,21.43
2018-09-03T15:04:38.151Z,19.80
2018-09-03T15:07:06.804Z,21.53
2018-09-03T15:09:35.159Z,20.87
2018-09-03T15:12:03.448Z,22.37
2018-09-03T15:14:33.252Z,32.67
2018-09-03T15:17:02.204Z,23.60
2018-09-03T15:22:07.092Z,24.33
2018-09-03T15:24:37.342Z,19.30
2018-09-03T15:27:05.688Z,24.53
2018-09-03T15:29:37.346Z,19.07
2018-09-03T15:32:05.984Z,20.07
2018-09-03T15:34:34.809Z,19.90
2018-09-03T15:37:05.738Z,20.80
2018-09-03T15:39:34.120Z,21.23
2018-09-03T15:42:02.476Z,20.00
2018-09-03T15:44:32.903Z,21.73
2018-09-03T15:47:04.433Z,20.33
2018-09-03T15:49:32.936Z,21.87
2018-09-03T15:52:01.345Z,23.67
2018-09-03T15:54:30.125Z,22.40
2018-09-03T15:56:58.902Z,25.40
2018-09-03T15:59:27.515Z,19.70
2018-09-03T16:01:55.982Z,17.33
2018-09-03T16:04:24.448Z,22.80
2018-09-03T16:06:52.996Z,24.90
2018-09-03T16:09:21.561Z,23.57
2018-09-03T16:11:50.053Z,21.73
2018-09-03T16:14:18.663Z,20.77
2018-09-03T16:16:47.217Z,24.30
2018-09-03T16:19:15.737Z,18.97
2018-09-03T16:21:44.172Z,26.70
2018-09-03T16:24:12.544Z,20.40
2018-09-03T16:26:41.046Z,24.87
2018-09-03T16:29:09.567Z,18.37
2018-09-03T16:31:38.344Z,19.80
2018-09-03T16:34:06.936Z,23.70
2018-09-03T16:36:35.352Z,17.77
2018-09-03T16:39:04.218Z,17.33
2018-09-03T16:41:32.879Z,17.73
2018-09-03T16:44:01.360Z,24.80
2018-09-03T16:46:29.904Z,17.87
2018-09-03T16:48:58.682Z,20.70
2018-09-03T16:51:27.333Z,23.67
2018-09-03T16:53:55.861Z,21.67
2018-09-03T16:56:24.324Z,21.83
2018-09-03T16:58:52.740Z,18.80
2018-09-03T17:01:21.268Z,18.30
2018-09-03T17:03:49.569Z,18.33
2018-09-03T17:06:18.221Z,17.10
2018-09-03T17:08:46.645Z,17.23
2018-09-03T17:11:15.072Z,21.37
2018-09-03T17:13:43.608Z,21.30
2018-09-03T17:16:12.166Z,17.70
2018-09-03T17:18:40.596Z,16.40
2018-09-03T17:21:09.169Z,21.40
2018-09-03T17:23:37.739Z,19.13
2018-09-03T17:26:07.941Z,21.70
2018-09-03T17:28:36.434Z,19.43
2018-09-03T17:31:05.003Z,19.07
2018-09-03T17:33:33.435Z,23.23
2018-09-03T17:36:02.816Z,21.50
2018-09-03T17:38:36.235Z,22.37
2018-09-03T17:41:05.351Z,22.40
2018-09-03T17:43:34.890Z,32.53
2018-09-03T17:46:03.396Z,26.53
2018-09-03T17:48:31.833Z,18.20
2018-09-03T17:51:00.424Z,20.90
2018-09-03T17:53:29.036Z,21.27
2018-09-03T17:55:58.511Z,22.13
2018-09-03T17:58:27.158Z,32.03
2018-09-03T18:00:55.624Z,24.83
2018-09-03T18:03:24.112Z,23.23
2018-09-03T18:05:52.634Z,20.20
2018-09-03T18:08:21.268Z,20.93
2018-09-03T18:10:49.752Z,18.33
2018-09-03T18:13:18.281Z,21.23
2018-09-03T18:15:46.727Z,19.80
2018-09-03T18:18:15.106Z,21.00
2018-09-03T18:20:43.640Z,18.43
2018-09-03T18:23:12.083Z,18.67
2018-09-03T18:25:40.541Z,17.27
2018-09-03T18:28:09.194Z,18.03
2018-09-03T18:30:37.809Z,20.67
2018-09-03T18:33:06.287Z,22.97
2018-09-03T18:35:34.755Z,20.70
2018-09-03T18:38:03.429Z,18.20
2018-09-03T18:40:32.048Z,20.10
2018-09-03T18:43:00.545Z,20.23
2018-09-03T18:45:29.117Z,23.23
2018-09-03T18:47:57.659Z,18.40
2018-09-03T18:50:26.440Z,19.93
2018-09-03T18:52:54.913Z,18.77
2018-09-03T18:55:23.417Z,20.30
2018-09-03T18:57:51.884Z,20.07
2018-09-03T19:00:20.407Z,19.13
2018-09-03T19:02:48.866Z,22.90
2018-09-03T19:05:17.768Z,19.93
2018-09-03T19:07:46.969Z,23.60
2018-09-03T19:10:15.603Z,20.27
2018-09-03T19:12:44.048Z,20.10
2018-09-03T19:15:12.808Z,21.60
2018-09-03T19:17:41.602Z,22.90
2018-09-03T19:20:09.932Z,24.10
2018-09-03T19:22:38.235Z,25.40
2018-09-03T19:25:06.563Z,21.70
2018-09-03T19:27:34.860Z,20.73
2018-09-03T19:30:03.211Z,24.90
2018-09-03T19:32:31.530Z,27.40
2018-09-03T19:34:59.853Z,22.03
2018-09-03T19:37:28.161Z,25.33
2018-09-03T19:39:56.501Z,30.47
2018-09-03T19:42:24.840Z,27.20
2018-09-03T19:44:53.156Z,23.00
2018-09-03T19:47:21.488Z,21.97
2018-09-03T19:49:49.803Z,19.33
2018-09-03T19:52:18.123Z,18.73
2018-09-03T19:54:46.454Z,24.63
2018-09-03T19:57:14.800Z,20.43
2018-09-03T19:59:43.112Z,19.20
2018-09-03T20:02:11.435Z,20.00
2018-09-03T20:04:39.744Z,19.30
2018-09-03T20:07:08.085Z,20.33
2018-09-03T20:09:36.384Z,19.50
2018-09-03T20:12:04.745Z,19.90
2018-09-03T20:14:33.163Z,23.67
2018-09-03T20:17:01.515Z,20.53
2018-09-03T20:19:29.919Z,19.30
2018-09-03T20:21:58.252Z,23.57
2018-09-03T20:24:26.587Z,23.50
2018-09-03T20:26:54.941Z,25.60
2018-09-03T20:29:23.252Z,26.20
2018-09-03T20:31:51.609Z,23.50
2018-09-03T20:34:19.941Z,19.17
2018-09-03T20:36:48.264Z,20.93
2018-09-03T20:39:16.571Z,19.60
2018-09-03T20:41:44.896Z,21.60
2018-09-03T20:44:13.216Z,26.83
2018-09-03T20:46:41.548Z,19.40
2018-09-03T20:49:09.853Z,19.83
2018-09-03T20:51:38.232Z,17.40
2018-09-03T20:54:06.508Z,22.30
2018-09-03T20:56:34.867Z,22.07
2018-09-03T20:59:03.172Z,28.27
2018-09-03T21:01:31.636Z,27.73
2018-09-03T21:03:59.865Z,34.63
2018-09-03T21:06:28.199Z,30.93
2018-09-03T21:08:56.504Z,38.93
2018-09-03T21:11:25.092Z,34.73
2018-09-03T21:13:53.412Z,33.07
2018-09-03T21:16:21.735Z,35.47
2018-09-03T21:18:50.041Z,41.87
2018-09-03T21:21:18.367Z,21.53
2018-09-03T21:23:46.677Z,20.47
2018-09-03T21:26:15.024Z,32.63
2018-09-03T21:28:43.386Z,31.93
2018-09-03T21:31:11.680Z,20.93
2018-09-03T21:33:39.976Z,25.87
2018-09-03T21:36:08.299Z,27.10
2018-09-03T21:38:36.612Z,29.80
2018-09-03T21:41:04.975Z,30.73
2018-09-03T21:43:33.276Z,21.10
2018-09-03T21:47:30.816Z,26.60
2018-09-03T21:49:59.120Z,32.27
2018-09-03T21:52:27.452Z,30.70
2018-09-03T21:54:55.755Z,25.07
2018-09-03T21:57:24.079Z,21.83
2018-09-03T21:59:52.383Z,33.53
2018-09-03T22:02:20.704Z,30.03
2018-09-03T22:04:49.013Z,20.40
2018-09-03T22:07:17.365Z,20.67
2018-09-03T22:09:45.857Z,21.37
2018-09-03T22:12:14.176Z,32.27
2018-09-03T22:14:42.484Z,32.93
2018-09-03T22:17:10.812Z,37.60
2018-09-03T22:19:39.112Z,33.20
2018-09-03T22:22:07.439Z,31.40
2018-09-03T22:24:35.763Z,34.20
2018-09-03T22:27:04.088Z,22.30
2018-09-03T22:29:32.405Z,21.57
2018-09-03T22:32:00.732Z,19.73
2018-09-03T22:34:29.025Z,19.33
2018-09-03T22:36:57.364Z,19.70
2018-09-03T22:39:26.096Z,18.60
2018-09-03T22:41:54.558Z,22.83
2018-09-03T22:44:22.932Z,29.83
2018-09-03T22:46:51.254Z,24.27
2018-09-03T22:49:19.568Z,32.47
2018-09-03T22:51:47.904Z,25.37
2018-09-03T22:54:16.209Z,35.13
2018-09-03T22:56:44.532Z,23.10
2018-09-03T22:59:12.839Z,28.77
2018-09-03T23:01:41.261Z,22.03
2018-09-03T23:04:09.576Z,23.07
2018-09-03T23:06:37.923Z,18.00
2018-09-03T23:09:07.012Z,27.10
2018-09-03T23:11:35.411Z,30.50
2018-09-03T23:14:03.735Z,28.77
2018-09-03T23:16:32.064Z,31.83
2018-09-03T23:19:00.400Z,35.03
2018-09-03T23:21:28.706Z,32.87
2018-09-03T23:23:57.031Z,21.40
2018-09-03T23:26:25.652Z,27.80
2018-09-03T23:28:53.985Z,27.23
2018-09-03T23:31:22.336Z,18.97
2018-09-03T23:33:50.664Z,21.93
2018-09-03T23:36:18.987Z,44.83
2018-09-03T23:38:47.312Z,22.90
2018-09-03T23:41:15.611Z,33.73
2018-09-03T23:43:43.981Z,22.33
2018-09-03T23:46:12.289Z,25.00
2018-09-03T23:48:40.649Z,30.20
2018-09-03T23:51:08.944Z,31.40
2018-09-03T23:53:37.269Z,32.57
2018-09-03T23:56:05.572Z,31.73
2018-09-03T23:58:33.892Z,25.50
